createdAt,value
2019-05-18T00:01:26.179Z,10.26
2019-05-18T00:03:55.126Z,10.17
2019-05-18T00:06:24.685Z,10.09
2019-05-18T00:08:53.397Z,10.05
2019-05-18T00:11:22.084Z,9.99
2019-05-18T00:13:51.034Z,9.96
2019-05-18T00:16:19.796Z,9.93
2019-05-18T00:18:48.488Z,9.93
2019-05-18T00:21:17.166Z,9.98
2019-05-18T00:23:45.880Z,10.00
2019-05-18T00:26:14.572Z,10.05
2019-05-18T00:28:43.543Z,10.02
2019-05-18T00:31:12.521Z,10.08
2019-05-18T00:33:41.482Z,10.16
2019-05-18T00:36:10.189Z,10.24
2019-05-18T00:38:38.887Z,10.32
2019-05-18T00:41:07.574Z,10.36
2019-05-18T00:43:36.340Z,10.44
2019-05-18T00:46:05.597Z,10.30
2019-05-18T00:48:34.315Z,10.33
2019-05-18T00:51:03.032Z,10.38
2019-05-18T00:53:31.868Z,10.33
2019-05-18T00:56:00.576Z,10.32
2019-05-18T00:58:29.524Z,10.30
2019-05-18T01:00:58.224Z,10.29
2019-05-18T01:03:27.422Z,10.34
2019-05-18T01:05:56.429Z,10.19
2019-05-18T01:08:25.978Z,10.14
2019-05-18T01:10:57.492Z,10.18
2019-05-18T01:13:28.906Z,10.08
2019-05-18T01:15:57.855Z,10.01
2019-05-18T01:18:26.790Z,10.06
2019-05-18T01:20:55.492Z,10.20
2019-05-18T01:23:24.427Z,10.20
2019-05-18T01:25:53.368Z,10.16
2019-05-18T01:28:22.070Z,10.13
2019-05-18T01:30:50.937Z,10.22
2019-05-18T01:33:19.685Z,10.27
2019-05-18T01:35:48.376Z,10.22
2019-05-18T01:38:17.572Z,10.19
2019-05-18T01:40:46.264Z,10.27
2019-05-18T01:43:15.197Z,10.13
2019-05-18T01:45:43.920Z,10.11
2019-05-18T01:48:14.530Z,10.11
2019-05-18T01:50:43.547Z,10.05
2019-05-18T01:53:12.302Z,9.95
2019-05-18T01:55:41.233Z,9.89
2019-05-18T01:58:10.147Z,9.77
2019-05-18T02:00:38.834Z,9.73
2019-05-18T02:03:07.587Z,9.85
2019-05-18T02:05:36.522Z,9.85
2019-05-18T02:08:05.517Z,9.87
2019-05-18T02:10:34.235Z,9.94
2019-05-18T02:13:03.048Z,10.01
2019-05-18T02:15:32.320Z,9.97
2019-05-18T02:18:01.242Z,9.97
2019-05-18T02:20:29.967Z,9.95
2019-05-18T02:22:58.894Z,9.92
2019-05-18T02:25:27.845Z,9.99
2019-05-18T02:27:56.773Z,9.79
2019-05-18T02:30:26.004Z,9.70
2019-05-18T02:32:54.924Z,9.68
2019-05-18T02:35:23.611Z,9.63
2019-05-18T02:37:54.192Z,9.58
2019-05-18T02:40:22.882Z,9.56
2019-05-18T02:42:51.872Z,9.49
2019-05-18T02:45:20.961Z,9.39
2019-05-18T02:47:49.896Z,9.48
2019-05-18T02:50:18.732Z,9.45
2019-05-18T02:52:47.633Z,9.35
2019-05-18T02:55:16.459Z,9.26
2019-05-18T02:57:45.370Z,9.25
2019-05-18T03:00:17.346Z,9.23
2019-05-18T03:02:46.045Z,9.16
2019-05-18T03:05:15.131Z,9.13
2019-05-18T03:07:44.302Z,9.05
2019-05-18T03:10:13.079Z,9.08
2019-05-18T03:12:41.827Z,9.06
2019-05-18T03:15:10.921Z,9.00
2019-05-18T03:17:39.944Z,9.05
2019-05-18T03:20:09.147Z,9.06
2019-05-18T03:22:37.977Z,9.05
2019-05-18T03:25:06.920Z,9.07
2019-05-18T03:27:35.924Z,9.06
2019-05-18T03:30:05.069Z,9.09
2019-05-18T03:32:34.027Z,9.09
2019-05-18T03:35:02.944Z,9.10
2019-05-18T03:37:31.627Z,9.15
2019-05-18T03:40:00.401Z,9.13
2019-05-18T03:42:29.145Z,9.14
2019-05-18T03:44:58.176Z,9.17
2019-05-18T03:47:29.652Z,9.16
2019-05-18T03:49:58.353Z,9.19
2019-05-18T03:52:27.277Z,9.15
2019-05-18T03:54:56.211Z,9.07
2019-05-18T03:57:27.643Z,9.13
2019-05-18T03:59:56.371Z,9.12
2019-05-18T04:02:26.204Z,9.14
2019-05-18T04:04:55.139Z,9.16
2019-05-18T04:07:24.412Z,9.16
2019-05-18T04:09:53.093Z,9.13
2019-05-18T04:12:22.032Z,9.13
2019-05-18T04:14:52.303Z,9.12
2019-05-18T04:17:21.422Z,9.12
2019-05-18T04:19:50.460Z,9.11
2019-05-18T04:22:19.403Z,9.14
2019-05-18T04:24:48.095Z,9.19
2019-05-18T04:27:17.518Z,9.20
2019-05-18T04:29:46.688Z,9.19
2019-05-18T04:32:15.850Z,9.24
2019-05-18T04:34:44.563Z,9.25
2019-05-18T04:37:13.525Z,9.29
2019-05-18T04:39:42.205Z,9.35
2019-05-18T04:42:10.898Z,9.36
2019-05-18T04:44:40.063Z,9.42
2019-05-18T04:47:09.005Z,9.44
2019-05-18T04:49:38.178Z,9.54
2019-05-18T04:52:06.950Z,9.57
2019-05-18T04:54:35.628Z,9.65
2019-05-18T04:57:04.568Z,9.73
2019-05-18T04:59:33.250Z,9.78
2019-05-18T05:02:01.943Z,9.88
2019-05-18T05:04:30.852Z,9.95
2019-05-18T05:06:59.768Z,10.01
2019-05-18T05:09:28.477Z,10.08
2019-05-18T05:11:57.638Z,10.16
2019-05-18T05:14:26.340Z,10.23
2019-05-18T05:16:55.280Z,10.31
2019-05-18T05:19:24.469Z,10.37
2019-05-18T05:21:53.884Z,10.44
2019-05-18T05:24:22.615Z,10.59
2019-05-18T05:26:51.341Z,10.63
2019-05-18T05:29:20.323Z,10.73
2019-05-18T05:31:49.480Z,10.85
2019-05-18T05:34:18.421Z,10.91
2019-05-18T05:36:47.352Z,11.08
2019-05-18T05:39:16.543Z,11.20
2019-05-18T05:41:45.224Z,11.33
2019-05-18T05:44:14.269Z,11.36
2019-05-18T05:46:43.442Z,11.38
2019-05-18T05:49:12.135Z,11.43
2019-05-18T05:51:41.051Z,11.59
2019-05-18T05:54:09.752Z,11.80
2019-05-18T05:56:38.702Z,11.98
2019-05-18T05:59:07.646Z,12.02
2019-05-18T06:01:36.318Z,12.17
2019-05-18T06:04:05.154Z,12.25
2019-05-18T06:06:34.645Z,12.28
2019-05-18T06:09:05.317Z,12.28
2019-05-18T06:11:34.247Z,12.35
2019-05-18T06:14:03.704Z,12.37
2019-05-18T06:16:32.390Z,12.59
2019-05-18T06:19:01.123Z,12.47
2019-05-18T06:21:30.052Z,12.58
2019-05-18T06:23:58.982Z,12.56
2019-05-18T06:26:27.658Z,12.53
2019-05-18T06:28:56.337Z,12.53
2019-05-18T06:31:25.021Z,12.82
2019-05-18T06:33:53.935Z,12.91
2019-05-18T06:36:22.702Z,12.87
2019-05-18T06:38:51.393Z,12.86
2019-05-18T06:41:20.207Z,12.81
2019-05-18T06:43:48.890Z,12.87
2019-05-18T06:46:17.611Z,12.94
2019-05-18T06:48:46.340Z,13.01
2019-05-18T06:51:15.102Z,13.09
2019-05-18T06:53:47.220Z,13.07
2019-05-18T06:56:16.897Z,13.08
2019-05-18T06:58:47.051Z,13.09
2019-05-18T07:01:15.741Z,13.18
2019-05-18T07:03:45.189Z,13.26
2019-05-18T07:06:14.319Z,13.33
2019-05-18T07:08:43.056Z,13.48
2019-05-18T07:11:12.188Z,13.53
2019-05-18T07:13:40.895Z,13.53
2019-05-18T07:16:09.831Z,13.59
2019-05-18T07:18:38.793Z,13.69
2019-05-18T07:21:21.360Z,13.88
2019-05-18T07:23:38.198Z,14.15
2019-05-18T07:26:07.148Z,14.24
2019-05-18T07:28:36.096Z,14.42
2019-05-18T07:31:04.930Z,14.32
2019-05-18T07:33:33.886Z,14.43
2019-05-18T07:36:02.814Z,14.76
2019-05-18T07:38:31.504Z,14.49
2019-05-18T07:41:00.452Z,14.33
2019-05-18T07:43:30.765Z,14.33
2019-05-18T07:45:59.470Z,14.36
2019-05-18T07:48:28.202Z,14.40
2019-05-18T07:50:57.395Z,14.50
2019-05-18T07:53:26.084Z,14.62
2019-05-18T07:55:55.031Z,14.93
2019-05-18T07:58:23.991Z,14.98
2019-05-18T08:00:52.693Z,14.89
2019-05-18T08:03:21.370Z,14.89
2019-05-18T08:05:50.137Z,14.93
2019-05-18T08:08:19.216Z,15.15
2019-05-18T08:10:47.904Z,15.23
2019-05-18T08:13:16.614Z,15.31
2019-05-18T08:15:45.330Z,15.42
2019-05-18T08:18:14.565Z,15.47
2019-05-18T08:20:46.091Z,15.56
2019-05-18T08:23:14.769Z,15.54
2019-05-18T08:25:43.529Z,15.55
2019-05-18T08:28:12.325Z,15.57
2019-05-18T08:30:41.248Z,15.64
2019-05-18T08:33:10.891Z,15.89
2019-05-18T08:35:40.313Z,16.13
2019-05-18T08:38:09.081Z,16.25
2019-05-18T08:40:39.572Z,16.17
2019-05-18T08:43:09.157Z,16.10
2019-05-18T08:45:38.005Z,16.11
2019-05-18T08:48:06.924Z,16.22
2019-05-18T08:50:35.615Z,16.19
2019-05-18T08:53:06.862Z,16.52
2019-05-18T08:55:36.449Z,16.60
2019-05-18T08:58:05.238Z,16.62
2019-05-18T09:00:34.383Z,16.67
2019-05-18T09:03:03.069Z,16.77
2019-05-18T09:05:32.267Z,16.75
2019-05-18T09:08:01.127Z,16.76
2019-05-18T09:10:29.825Z,17.01
2019-05-18T09:12:58.529Z,17.08
2019-05-18T09:15:27.215Z,17.02
2019-05-18T09:17:55.925Z,17.12
2019-05-18T09:20:24.896Z,17.48
2019-05-18T09:22:54.259Z,17.43
2019-05-18T09:25:23.222Z,17.34
2019-05-18T09:27:52.350Z,17.44
2019-05-18T09:30:21.278Z,17.47
2019-05-18T09:32:51.264Z,17.57
2019-05-18T09:35:20.203Z,17.64
2019-05-18T09:37:49.587Z,17.72
2019-05-18T09:40:18.919Z,17.82
2019-05-18T09:42:47.828Z,18.12
2019-05-18T09:45:17.281Z,18.23
2019-05-18T09:47:46.151Z,18.28
2019-05-18T09:50:17.431Z,18.10
2019-05-18T09:52:46.703Z,18.12
2019-05-18T09:55:15.791Z,18.13
2019-05-18T09:57:44.498Z,18.21
2019-05-18T10:00:14.207Z,18.39
2019-05-18T10:03:03.464Z,18.55
2019-05-18T10:05:32.824Z,18.48
2019-05-18T10:08:01.854Z,18.51
2019-05-18T10:10:33.665Z,18.63
2019-05-18T10:13:01.740Z,18.82
2019-05-18T10:15:30.659Z,19.06
2019-05-18T10:18:00.764Z,19.14
2019-05-18T10:20:41.309Z,19.29
2019-05-18T10:23:13.698Z,19.20
2019-05-18T10:25:41.626Z,19.38
2019-05-18T10:28:11.712Z,19.37
2019-05-18T10:30:40.654Z,19.39
2019-05-18T10:33:09.772Z,19.50
2019-05-18T10:35:46.602Z,19.63
2019-05-18T10:38:16.469Z,19.57
2019-05-18T10:40:45.127Z,19.62
2019-05-18T10:43:13.970Z,19.86
2019-05-18T10:45:45.064Z,19.81
2019-05-18T10:48:13.604Z,19.96
2019-05-18T10:50:43.377Z,20.03
2019-05-18T10:53:27.507Z,19.97
2019-05-18T10:55:42.542Z,20.04
2019-05-18T10:58:12.004Z,19.87
2019-05-18T11:00:40.699Z,19.85
2019-05-18T11:03:09.457Z,19.91
2019-05-18T11:05:38.127Z,20.13
2019-05-18T11:08:07.096Z,20.21
2019-05-18T11:10:35.773Z,20.10
2019-05-18T11:13:04.792Z,20.24
2019-05-18T11:15:33.820Z,20.48
2019-05-18T11:18:02.791Z,20.52
2019-05-18T11:20:31.605Z,20.69
2019-05-18T11:23:00.561Z,20.81
2019-05-18T11:25:29.245Z,20.93
2019-05-18T11:27:57.930Z,20.80
2019-05-18T11:30:26.842Z,21.02
2019-05-18T11:32:55.632Z,21.22
2019-05-18T11:35:24.710Z,21.35
2019-05-18T11:37:53.406Z,21.36
2019-05-18T11:40:22.273Z,21.13
2019-05-18T11:42:50.979Z,21.23
2019-05-18T11:45:20.615Z,21.17
2019-05-18T11:47:49.366Z,21.05
2019-05-18T11:50:18.669Z,21.08
2019-05-18T11:52:47.421Z,21.05
2019-05-18T11:55:18.415Z,21.37
2019-05-18T11:57:47.116Z,21.46
2019-05-18T12:00:16.889Z,21.43
2019-05-18T12:02:45.644Z,21.47
2019-05-18T12:05:14.657Z,21.50
2019-05-18T12:07:43.638Z,21.62
2019-05-18T12:10:12.933Z,21.76
2019-05-18T12:12:41.623Z,21.95
2019-05-18T12:15:11.050Z,22.03
2019-05-18T12:17:40.113Z,21.93
2019-05-18T12:20:09.464Z,21.89
2019-05-18T12:22:38.529Z,22.15
2019-05-18T12:25:07.296Z,22.25
2019-05-18T12:27:36.106Z,22.32
2019-05-18T12:30:05.483Z,21.93
2019-05-18T12:32:37.416Z,21.66
2019-05-18T12:35:06.632Z,21.58
2019-05-18T12:37:37.366Z,21.90
2019-05-18T12:40:06.861Z,21.92
2019-05-18T12:42:35.850Z,21.84
2019-05-18T12:45:08.349Z,21.87
2019-05-18T12:47:39.524Z,22.00
2019-05-18T12:50:10.469Z,22.09
2019-05-18T12:52:39.161Z,22.23
2019-05-18T12:55:08.685Z,22.12
2019-05-18T12:57:37.783Z,22.06
2019-05-18T13:00:08.241Z,22.19
2019-05-18T13:02:36.906Z,22.06
2019-05-18T13:05:07.223Z,21.70
2019-05-18T13:07:36.063Z,21.27
2019-05-18T13:10:05.467Z,21.11
2019-05-18T13:12:34.145Z,21.10
2019-05-18T13:15:03.242Z,20.94
2019-05-18T13:17:31.922Z,21.01
2019-05-18T13:20:00.739Z,21.28
2019-05-18T13:22:29.368Z,21.71
2019-05-18T13:24:58.301Z,22.01
2019-05-18T13:27:38.767Z,22.28
2019-05-18T13:29:59.333Z,22.25
2019-05-18T13:32:28.243Z,22.08
2019-05-18T13:34:57.443Z,22.12
2019-05-18T13:37:26.122Z,22.13
2019-05-18T13:39:54.809Z,22.19
2019-05-18T13:42:23.478Z,22.37
2019-05-18T13:44:52.430Z,22.16
2019-05-18T13:47:21.116Z,22.12
2019-05-18T13:49:49.827Z,22.41
2019-05-18T13:52:18.740Z,22.44
2019-05-18T13:55:02.242Z,22.50
2019-05-18T13:57:18.144Z,22.68
2019-05-18T13:59:47.418Z,22.61
2019-05-18T14:02:16.158Z,22.64
2019-05-18T14:04:44.858Z,22.69
2019-05-18T14:07:13.854Z,22.87
2019-05-18T14:09:42.791Z,22.80
2019-05-18T14:12:11.705Z,22.52
2019-05-18T14:14:40.406Z,22.40
2019-05-18T14:17:09.084Z,22.57
2019-05-18T14:19:38.024Z,22.31
2019-05-18T14:22:06.933Z,22.49
2019-05-18T14:24:35.875Z,22.58
2019-05-18T14:27:04.631Z,22.69
2019-05-18T14:29:33.328Z,22.42
2019-05-18T14:32:02.242Z,22.41
2019-05-18T14:34:31.200Z,22.31
2019-05-18T14:37:00.133Z,22.11
2019-05-18T14:39:28.894Z,21.88
2019-05-18T14:41:57.818Z,22.00
2019-05-18T14:44:26.779Z,22.06
2019-05-18T14:46:55.993Z,21.88
2019-05-18T14:49:25.245Z,21.52
2019-05-18T14:51:54.321Z,21.63
2019-05-18T14:54:25.519Z,22.10
2019-05-18T14:56:54.827Z,22.47
2019-05-18T14:59:23.805Z,22.68
2019-05-18T15:01:52.923Z,22.82
2019-05-18T15:04:21.713Z,22.94
2019-05-18T15:06:50.707Z,22.92
2019-05-18T15:09:19.425Z,22.84
2019-05-18T15:11:48.112Z,23.00
2019-05-18T15:14:17.033Z,22.60
2019-05-18T15:16:45.973Z,22.63
2019-05-18T15:19:14.930Z,22.67
2019-05-18T15:21:46.048Z,22.77
2019-05-18T15:24:15.464Z,22.70
2019-05-18T15:26:44.397Z,22.52
2019-05-18T15:29:13.356Z,21.93
2019-05-18T15:31:42.059Z,21.69
2019-05-18T15:34:11.087Z,21.97
2019-05-18T15:36:39.811Z,22.00
2019-05-18T15:39:11.117Z,22.11
2019-05-18T15:41:39.807Z,22.18
2019-05-18T15:44:08.455Z,22.33
2019-05-18T15:46:37.910Z,22.41
2019-05-18T15:49:06.659Z,22.41
2019-05-18T15:51:35.395Z,22.51
2019-05-18T15:54:04.087Z,22.40
2019-05-18T15:56:32.771Z,22.46
2019-05-18T15:59:01.529Z,22.39
2019-05-18T16:01:30.311Z,22.48
2019-05-18T16:03:58.975Z,22.37
2019-05-18T16:06:27.908Z,22.25
2019-05-18T16:08:56.659Z,22.40
2019-05-18T16:11:25.430Z,22.32
2019-05-18T16:13:54.472Z,22.07
2019-05-18T16:16:23.157Z,22.09
2019-05-18T16:18:52.093Z,22.12
2019-05-18T16:21:20.791Z,22.16
2019-05-18T16:23:49.980Z,22.07
2019-05-18T16:26:21.505Z,21.91
2019-05-18T16:28:49.328Z,21.78
2019-05-18T16:31:18.015Z,21.77
2019-05-18T16:33:46.705Z,21.50
2019-05-18T16:36:15.381Z,21.43
2019-05-18T16:38:44.070Z,21.35
2019-05-18T16:41:13.010Z,21.28
2019-05-18T16:43:41.957Z,21.18
2019-05-18T16:46:10.923Z,21.13
2019-05-18T16:48:39.706Z,21.06
2019-05-18T16:51:10.191Z,21.07
2019-05-18T16:53:38.862Z,21.08
2019-05-18T16:56:07.637Z,20.94
2019-05-18T16:58:36.307Z,20.85
2019-05-18T17:01:05.335Z,20.91
2019-05-18T17:03:34.140Z,20.78
2019-05-18T17:06:03.111Z,20.66
2019-05-18T17:08:31.798Z,20.67
2019-05-18T17:11:00.469Z,20.56
2019-05-18T17:13:29.146Z,20.44
2019-05-18T17:15:57.830Z,20.43
2019-05-18T17:18:26.763Z,20.34
2019-05-18T17:20:55.879Z,20.30
2019-05-18T17:23:24.581Z,20.26
2019-05-18T17:25:53.596Z,20.21
2019-05-18T17:28:22.600Z,20.21
2019-05-18T17:30:51.303Z,20.10
2019-05-18T17:33:20.047Z,20.01
2019-05-18T17:35:59.823Z,19.95
2019-05-18T17:38:19.244Z,19.80
2019-05-18T17:40:48.191Z,19.76
2019-05-18T17:43:17.153Z,19.72
2019-05-18T17:45:48.185Z,19.61
2019-05-18T17:48:16.852Z,19.44
2019-05-18T17:50:45.817Z,19.37
2019-05-18T17:53:14.753Z,19.20
2019-05-18T17:55:43.698Z,19.08
2019-05-18T17:58:12.436Z,19.07
2019-05-18T18:00:41.389Z,18.95
2019-05-18T18:03:10.309Z,18.92
2019-05-18T18:05:39.254Z,18.82
2019-05-18T18:08:08.184Z,18.70
2019-05-18T18:10:37.104Z,18.68
2019-05-18T18:13:09.240Z,18.59
2019-05-18T18:15:36.595Z,18.48
2019-05-18T18:18:05.396Z,18.56
2019-05-18T18:20:34.086Z,18.48
2019-05-18T18:23:02.787Z,18.47
2019-05-18T18:25:31.741Z,18.31
2019-05-18T18:28:00.430Z,18.33
2019-05-18T18:30:29.184Z,18.26
2019-05-18T18:32:57.893Z,18.09
2019-05-18T18:35:26.825Z,17.97
2019-05-18T18:37:55.761Z,17.88
2019-05-18T18:40:24.523Z,17.74
2019-05-18T18:42:53.462Z,17.71
2019-05-18T18:45:22.293Z,17.63
2019-05-18T18:47:50.983Z,17.52
2019-05-18T18:50:19.749Z,17.44
2019-05-18T18:52:48.763Z,17.35
2019-05-18T18:55:17.535Z,17.26
2019-05-18T18:57:46.215Z,17.21
2019-05-18T19:00:15.398Z,17.12
2019-05-18T19:02:44.069Z,17.03
2019-05-18T19:05:13.154Z,16.97
2019-05-18T19:07:41.865Z,16.90
2019-05-18T19:10:11.003Z,16.85
2019-05-18T19:12:39.774Z,16.75
2019-05-18T19:15:10.277Z,16.61
2019-05-18T19:17:39.423Z,16.56
2019-05-18T19:20:08.540Z,16.52
2019-05-18T19:22:37.230Z,16.47
2019-05-18T19:25:06.447Z,14.47
2019-05-18T19:27:35.244Z,16.32
2019-05-18T19:30:09.352Z,16.25
2019-05-18T19:32:35.316Z,16.16
2019-05-18T19:35:03.985Z,15.97
2019-05-18T19:37:32.770Z,15.90
2019-05-18T19:40:01.453Z,15.85
2019-05-18T19:42:30.288Z,15.84
2019-05-18T19:44:59.067Z,15.82
2019-05-18T19:47:27.844Z,15.79
2019-05-18T19:49:56.836Z,15.77
2019-05-18T19:52:26.094Z,15.76
2019-05-18T19:54:54.771Z,15.69
2019-05-18T19:57:23.457Z,15.69
2019-05-18T19:59:52.377Z,15.61
2019-05-18T20:02:21.089Z,15.55
2019-05-18T20:05:06.429Z,15.53
2019-05-18T20:07:20.159Z,15.50
2019-05-18T20:09:49.083Z,15.45
2019-05-18T20:12:18.040Z,15.51
2019-05-18T20:14:46.935Z,15.75
2019-05-18T20:17:15.663Z,15.78
2019-05-18T20:19:44.366Z,15.73
2019-05-18T20:22:13.075Z,15.73
2019-05-18T20:24:41.744Z,15.65
2019-05-18T20:27:10.486Z,15.54
2019-05-18T20:29:39.180Z,15.33
2019-05-18T20:32:07.859Z,15.22
2019-05-18T20:34:36.887Z,15.14
2019-05-18T20:37:05.832Z,15.07
2019-05-18T20:39:34.809Z,15.37
2019-05-18T20:42:03.482Z,15.53
2019-05-18T20:44:32.688Z,15.50
2019-05-18T20:47:01.370Z,15.47
2019-05-18T20:49:30.055Z,15.34
2019-05-18T20:51:58.752Z,15.20
2019-05-18T20:54:27.718Z,15.06
2019-05-18T20:56:56.669Z,14.95
2019-05-18T20:59:25.868Z,14.99
2019-05-18T21:01:54.573Z,15.03
2019-05-18T21:04:23.331Z,15.02
2019-05-18T21:06:52.343Z,15.07
2019-05-18T21:09:21.056Z,15.09
2019-05-18T21:11:49.830Z,15.16
2019-05-18T21:14:18.840Z,15.21
2019-05-18T21:16:47.520Z,15.20
2019-05-18T21:19:16.216Z,15.18
2019-05-18T21:21:44.908Z,15.13
2019-05-18T21:24:13.597Z,15.13
2019-05-18T21:26:43.128Z,15.15
2019-05-18T21:29:12.242Z,15.17
2019-05-18T21:31:40.930Z,15.19
2019-05-18T21:34:11.940Z,15.17
2019-05-18T21:36:40.715Z,15.20
2019-05-18T21:39:09.791Z,15.26
2019-05-18T21:41:40.418Z,15.15
2019-05-18T21:44:09.233Z,15.14
2019-05-18T21:46:39.150Z,15.18
2019-05-18T21:49:08.408Z,15.19
2019-05-18T21:51:37.414Z,15.16
2019-05-18T21:54:06.365Z,15.08
2019-05-18T21:56:35.403Z,14.98
2019-05-18T21:59:11.672Z,14.92
2019-05-18T22:01:35.032Z,14.87
2019-05-18T22:04:03.722Z,14.82
2019-05-18T22:06:32.414Z,14.71
2019-05-18T22:09:01.138Z,14.56
2019-05-18T22:11:29.896Z,14.48
2019-05-18T22:13:58.844Z,14.54
2019-05-18T22:16:27.566Z,14.43
2019-05-18T22:18:56.768Z,14.47
2019-05-18T22:21:25.433Z,14.48
2019-05-18T22:23:54.235Z,14.58
2019-05-18T22:26:22.869Z,14.58
2019-05-18T22:28:52.043Z,14.59
2019-05-18T22:31:20.723Z,14.68
2019-05-18T22:33:49.486Z,14.64
2019-05-18T22:36:18.254Z,14.56
2019-05-18T22:38:46.925Z,14.57
2019-05-18T22:41:15.852Z,14.59
2019-05-18T22:43:44.607Z,14.31
2019-05-18T22:46:13.628Z,14.22
2019-05-18T22:48:43.253Z,14.11
2019-05-18T22:51:14.594Z,13.98
2019-05-18T22:53:46.489Z,13.95
2019-05-18T22:56:14.252Z,13.95
2019-05-18T22:58:42.924Z,14.02
2019-05-18T23:01:11.692Z,14.22
2019-05-18T23:03:40.372Z,14.15
2019-05-18T23:06:09.426Z,14.05
2019-05-18T23:08:38.374Z,13.93
2019-05-18T23:11:07.146Z,13.79
2019-05-18T23:13:35.840Z,13.73
2019-05-18T23:16:04.862Z,13.61
2019-05-18T23:18:33.631Z,13.52
2019-05-18T23:21:04.613Z,13.44
2019-05-18T23:23:36.120Z,13.44
2019-05-18T23:26:05.399Z,13.44
2019-05-18T23:28:34.342Z,13.36
2019-05-18T23:31:03.040Z,12.44
2019-05-18T23:33:31.981Z,13.28
2019-05-18T23:36:00.692Z,13.27
2019-05-18T23:38:29.742Z,13.22
2019-05-18T23:40:58.452Z,13.17
2019-05-18T23:43:27.391Z,13.12
2019-05-18T23:45:56.773Z,13.07
2019-05-18T23:48:27.606Z,12.99
2019-05-18T23:50:57.129Z,12.88
2019-05-18T23:53:25.875Z,12.84
2019-05-18T23:55:54.568Z,12.77
2019-05-18T23:58:23.236Z,12.74
